sensor_id;sensor_type;location;lat;lon;timestamp;P1;durP1;ratioP1;P2;durP2;ratioP2
68800;SDS011;55784;50.734;7.086;2023-04-03T00:02:02;6.50;;;1.40;;
68800;SDS011;55784;50.734;7.086;2023-04-03T00:04:28;5.90;;;1.40;;
68800;SDS011;55784;50.734;7.086;2023-04-03T00:06:53;6.53;;;1.67;;
68800;SDS011;55784;50.734;7.086;2023-04-03T00:09:18;6.13;;;1.40;;
68800;SDS011;55784;50.734;7.086;2023-04-03T00:11:45;5.22;;;1.42;;
68800;SDS011;55784;50.734;7.086;2023-04-03T00:14:10;7.40;;;1.50;;
68800;SDS011;55784;50.734;7.086;2023-04-03T00:16:35;5.75;;;1.50;;
68800;SDS011;55784;50.734;7.086;2023-04-03T00:19:01;5.20;;;1.40;;
68800;SDS011;55784;50.734;7.086;2023-04-03T00:21:26;5.40;;;1.40;;
68800;SDS011;55784;50.734;7.086;2023-04-03T00:23:51;5.67;;;1.20;;
68800;SDS011;55784;50.734;7.086;2023-04-03T00:26:17;5.43;;;1.40;;
68800;SDS011;55784;50.734;7.086;2023-04-03T00:28:42;5.80;;;1.50;;
68800;SDS011;55784;50.734;7.086;2023-04-03T00:31:08;6.10;;;1.60;;
68800;SDS011;55784;50.734;7.086;2023-04-03T00:33:33;5.35;;;1.40;;
68800;SDS011;55784;50.734;7.086;2023-04-03T00:35:58;5.40;;;1.30;;
68800;SDS011;55784;50.734;7.086;2023-04-03T00:38:24;5.33;;;1.43;;
68800;SDS011;55784;50.734;7.086;2023-04-03T00:40:49;5.60;;;1.47;;
68800;SDS011;55784;50.734;7.086;2023-04-03T00:43:16;7.27;;;1.67;;
68800;SDS011;55784;50.734;7.086;2023-04-03T00:45:44;5.75;;;1.40;;
68800;SDS011;55784;50.734;7.086;2023-04-03T00:48:36;5.82;;;1.23;;
68800;SDS011;55784;50.734;7.086;2023-04-03T00:51:02;7.85;;;1.48;;
68800;SDS011;55784;50.734;7.086;2023-04-03T00:53:32;5.55;;;1.50;;
68800;SDS011;55784;50.734;7.086;2023-04-03T00:56:02;5.27;;;1.40;;
68800;SDS011;55784;50.734;7.086;2023-04-03T00:58:33;6.20;;;1.63;;
68800;SDS011;55784;50.734;7.086;2023-04-03T01:01:03;5.57;;;1.45;;
68800;SDS011;55784;50.734;7.086;2023-04-03T01:03:33;6.68;;;1.50;;
68800;SDS011;55784;50.734;7.086;2023-04-03T01:05:58;6.20;;;1.60;;
68800;SDS011;55784;50.734;7.086;2023-04-03T01:08:24;6.90;;;1.80;;
68800;SDS011;55784;50.734;7.086;2023-04-03T01:10:49;6.13;;;1.50;;
68800;SDS011;55784;50.734;7.086;2023-04-03T01:13:19;7.10;;;1.60;;
68800;SDS011;55784;50.734;7.086;2023-04-03T01:15:47;5.47;;;1.60;;
68800;SDS011;55784;50.734;7.086;2023-04-03T01:18:13;5.93;;;1.80;;
68800;SDS011;55784;50.734;7.086;2023-04-03T01:26:13;6.43;;;1.58;;
68800;SDS011;55784;50.734;7.086;2023-04-03T01:28:38;7.07;;;1.90;;
68800;SDS011;55784;50.734;7.086;2023-04-03T01:33:55;5.33;;;1.40;;
68800;SDS011;55784;50.734;7.086;2023-04-03T01:36:25;5.07;;;1.40;;
68800;SDS011;55784;50.734;7.086;2023-04-03T01:38:54;6.40;;;1.67;;
68800;SDS011;55784;50.734;7.086;2023-04-03T01:41:20;6.40;;;1.70;;
68800;SDS011;55784;50.734;7.086;2023-04-03T01:43:47;7.68;;;1.80;;
68800;SDS011;55784;50.734;7.086;2023-04-03T01:46:14;5.75;;;1.70;;
68800;SDS011;55784;50.734;7.086;2023-04-03T01:48:40;5.10;;;1.42;;
68800;SDS011;55784;50.734;7.086;2023-04-03T01:51:05;6.80;;;1.70;;
68800;SDS011;55784;50.734;7.086;2023-04-03T01:53:30;5.83;;;1.60;;
68800;SDS011;55784;50.734;7.086;2023-04-03T01:55:56;7.93;;;1.67;;
68800;SDS011;55784;50.734;7.086;2023-04-03T01:58:21;4.63;;;1.40;;
68800;SDS011;55784;50.734;7.086;2023-04-03T02:00:47;5.82;;;1.60;;
68800;SDS011;55784;50.734;7.086;2023-04-03T02:03:13;9.07;;;1.80;;
68800;SDS011;55784;50.734;7.086;2023-04-03T02:05:38;5.25;;;1.60;;
68800;SDS011;55784;50.734;7.086;2023-04-03T02:08:04;6.90;;;1.67;;
68800;SDS011;55784;50.734;7.086;2023-04-03T02:10:29;6.27;;;1.77;;
68800;SDS011;55784;50.734;7.086;2023-04-03T02:12:55;5.63;;;1.70;;
68800;SDS011;55784;50.734;7.086;2023-04-03T02:15:20;6.22;;;1.70;;
68800;SDS011;55784;50.734;7.086;2023-04-03T02:17:45;7.50;;;1.80;;
68800;SDS011;55784;50.734;7.086;2023-04-03T02:20:11;6.17;;;1.70;;
68800;SDS011;55784;50.734;7.086;2023-04-03T02:22:36;6.80;;;1.70;;
68800;SDS011;55784;50.734;7.086;2023-04-03T02:25:02;6.77;;;1.60;;
68800;SDS011;55784;50.734;7.086;2023-04-03T02:27:27;5.43;;;1.60;;
68800;SDS011;55784;50.734;7.086;2023-04-03T02:29:53;6.47;;;1.50;;
68800;SDS011;55784;50.734;7.086;2023-04-03T02:32:18;6.67;;;1.70;;
68800;SDS011;55784;50.734;7.086;2023-04-03T02:34:44;5.20;;;1.48;;
68800;SDS011;55784;50.734;7.086;2023-04-03T02:37:09;7.07;;;1.77;;
68800;SDS011;55784;50.734;7.086;2023-04-03T02:39:35;6.93;;;1.50;;
68800;SDS011;55784;50.734;7.086;2023-04-03T02:42:00;6.30;;;1.90;;
68800;SDS011;55784;50.734;7.086;2023-04-03T02:44:26;6.93;;;1.97;;
68800;SDS011;55784;50.734;7.086;2023-04-03T02:46:51;7.53;;;1.80;;
68800;SDS011;55784;50.734;7.086;2023-04-03T02:49:19;6.57;;;1.73;;
68800;SDS011;55784;50.734;7.086;2023-04-03T02:51:45;5.75;;;1.70;;
68800;SDS011;55784;50.734;7.086;2023-04-03T02:54:10;6.40;;;1.80;;
68800;SDS011;55784;50.734;7.086;2023-04-03T02:56:36;6.83;;;1.90;;
68800;SDS011;55784;50.734;7.086;2023-04-03T02:59:01;6.13;;;1.80;;
68800;SDS011;55784;50.734;7.086;2023-04-03T03:01:27;6.80;;;1.90;;
68800;SDS011;55784;50.734;7.086;2023-04-03T03:03:56;6.30;;;1.87;;
68800;SDS011;55784;50.734;7.086;2023-04-03T03:06:22;6.20;;;1.80;;
68800;SDS011;55784;50.734;7.086;2023-04-03T03:08:47;7.20;;;1.80;;
68800;SDS011;55784;50.734;7.086;2023-04-03T03:11:12;6.78;;;1.80;;
68800;SDS011;55784;50.734;7.086;2023-04-03T03:13:38;7.22;;;1.77;;
68800;SDS011;55784;50.734;7.086;2023-04-03T03:16:03;6.83;;;1.80;;
68800;SDS011;55784;50.734;7.086;2023-04-03T03:18:30;8.18;;;1.98;;
68800;SDS011;55784;50.734;7.086;2023-04-03T03:20:56;6.00;;;1.90;;
68800;SDS011;55784;50.734;7.086;2023-04-03T03:23:23;6.38;;;1.85;;
68800;SDS011;55784;50.734;7.086;2023-04-03T03:26:04;6.90;;;1.90;;
68800;SDS011;55784;50.734;7.086;2023-04-03T03:28:31;8.63;;;1.70;;
68800;SDS011;55784;50.734;7.086;2023-04-03T03:30:57;7.88;;;1.90;;
68800;SDS011;55784;50.734;7.086;2023-04-03T03:33:23;6.03;;;1.90;;
68800;SDS011;55784;50.734;7.086;2023-04-03T03:35:48;7.00;;;1.87;;
68800;SDS011;55784;50.734;7.086;2023-04-03T03:38:14;8.90;;;1.83;;
68800;SDS011;55784;50.734;7.086;2023-04-03T03:40:40;6.40;;;2.00;;
68800;SDS011;55784;50.734;7.086;2023-04-03T03:43:05;8.17;;;1.97;;
68800;SDS011;55784;50.734;7.086;2023-04-03T03:45:31;7.50;;;2.05;;
68800;SDS011;55784;50.734;7.086;2023-04-03T03:47:57;8.77;;;2.20;;
68800;SDS011;55784;50.734;7.086;2023-04-03T03:50:22;6.73;;;2.10;;
68800;SDS011;55784;50.734;7.086;2023-04-03T03:52:47;7.57;;;1.93;;
68800;SDS011;55784;50.734;7.086;2023-04-03T03:55:12;7.07;;;2.35;;
68800;SDS011;55784;50.734;7.086;2023-04-03T03:57:38;8.20;;;2.30;;
68800;SDS011;55784;50.734;7.086;2023-04-03T04:00:03;7.20;;;2.40;;
68800;SDS011;55784;50.734;7.086;2023-04-03T04:02:29;7.47;;;2.10;;
68800;SDS011;55784;50.734;7.086;2023-04-03T04:04:55;6.10;;;2.10;;
68800;SDS011;55784;50.734;7.086;2023-04-03T04:07:20;6.93;;;2.10;;
68800;SDS011;55784;50.734;7.086;2023-04-03T04:09:46;8.05;;;2.90;;
68800;SDS011;55784;50.734;7.086;2023-04-03T04:12:11;6.67;;;2.17;;
68800;SDS011;55784;50.734;7.086;2023-04-03T04:14:37;7.10;;;2.30;;
68800;SDS011;55784;50.734;7.086;2023-04-03T04:17:02;7.83;;;2.37;;
68800;SDS011;55784;50.734;7.086;2023-04-03T04:19:28;6.70;;;2.00;;
68800;SDS011;55784;50.734;7.086;2023-04-03T04:21:53;8.17;;;2.27;;
68800;SDS011;55784;50.734;7.086;2023-04-03T04:24:18;7.47;;;2.30;;
68800;SDS011;55784;50.734;7.086;2023-04-03T04:26:44;6.63;;;2.20;;
68800;SDS011;55784;50.734;7.086;2023-04-03T04:29:09;6.07;;;2.10;;
68800;SDS011;55784;50.734;7.086;2023-04-03T04:31:35;6.63;;;2.10;;
68800;SDS011;55784;50.734;7.086;2023-04-03T04:34:00;6.13;;;2.15;;
68800;SDS011;55784;50.734;7.086;2023-04-03T04:36:26;7.13;;;2.27;;
68800;SDS011;55784;50.734;7.086;2023-04-03T04:38:51;6.47;;;1.93;;
68800;SDS011;55784;50.734;7.086;2023-04-03T04:41:19;7.43;;;2.10;;
68800;SDS011;55784;50.734;7.086;2023-04-03T04:43:51;6.87;;;2.20;;
68800;SDS011;55784;50.734;7.086;2023-04-03T04:46:16;6.68;;;2.30;;
68800;SDS011;55784;50.734;7.086;2023-04-03T04:48:43;6.25;;;2.08;;
68800;SDS011;55784;50.734;7.086;2023-04-03T04:51:08;7.53;;;2.40;;
68800;SDS011;55784;50.734;7.086;2023-04-03T04:53:34;7.77;;;2.70;;
68800;SDS011;55784;50.734;7.086;2023-04-03T04:55:59;6.93;;;2.43;;
68800;SDS011;55784;50.734;7.086;2023-04-03T04:58:25;7.13;;;2.10;;
68800;SDS011;55784;50.734;7.086;2023-04-03T05:00:58;6.73;;;2.17;;
68800;SDS011;55784;50.734;7.086;2023-04-03T05:03:24;8.48;;;2.70;;
68800;SDS011;55784;50.734;7.086;2023-04-03T05:05:49;6.20;;;2.20;;
68800;SDS011;55784;50.734;7.086;2023-04-03T05:08:15;8.67;;;2.10;;
68800;SDS011;55784;50.734;7.086;2023-04-03T05:10:40;7.60;;;2.13;;
68800;SDS011;55784;50.734;7.086;2023-04-03T05:13:06;6.53;;;2.20;;
68800;SDS011;55784;50.734;7.086;2023-04-03T05:15:31;9.17;;;2.40;;
68800;SDS011;55784;50.734;7.086;2023-04-03T05:17:57;7.03;;;2.20;;
68800;SDS011;55784;50.734;7.086;2023-04-03T05:20:22;6.70;;;2.20;;
68800;SDS011;55784;50.734;7.086;2023-04-03T05:22:47;7.77;;;2.10;;
68800;SDS011;55784;50.734;7.086;2023-04-03T05:25:13;8.20;;;2.43;;
68800;SDS011;55784;50.734;7.086;2023-04-03T05:27:38;8.03;;;2.10;;
68800;SDS011;55784;50.734;7.086;2023-04-03T05:30:04;7.15;;;2.00;;
68800;SDS011;55784;50.734;7.086;2023-04-03T05:32:29;7.53;;;2.10;;
68800;SDS011;55784;50.734;7.086;2023-04-03T05:34:55;7.03;;;2.03;;
68800;SDS011;55784;50.734;7.086;2023-04-03T05:37:20;10.68;;;2.45;;
68800;SDS011;55784;50.734;7.086;2023-04-03T05:39:45;6.60;;;2.13;;
68800;SDS011;55784;50.734;7.086;2023-04-03T05:42:11;7.93;;;2.00;;
68800;SDS011;55784;50.734;7.086;2023-04-03T05:44:37;7.15;;;2.10;;
68800;SDS011;55784;50.734;7.086;2023-04-03T05:47:03;6.63;;;2.13;;
68800;SDS011;55784;50.734;7.086;2023-04-03T05:49:29;8.07;;;2.15;;
68800;SDS011;55784;50.734;7.086;2023-04-03T05:51:54;7.50;;;2.00;;
68800;SDS011;55784;50.734;7.086;2023-04-03T05:54:24;7.03;;;1.90;;
68800;SDS011;55784;50.734;7.086;2023-04-03T05:56:53;7.22;;;2.08;;
68800;SDS011;55784;50.734;7.086;2023-04-03T05:59:19;7.20;;;1.80;;
68800;SDS011;55784;50.734;7.086;2023-04-03T06:01:45;6.90;;;1.70;;
68800;SDS011;55784;50.734;7.086;2023-04-03T06:04:11;6.70;;;1.80;;
68800;SDS011;55784;50.734;7.086;2023-04-03T06:09:08;7.10;;;1.80;;
68800;SDS011;55784;50.734;7.086;2023-04-03T06:11:34;6.27;;;1.80;;
68800;SDS011;55784;50.734;7.086;2023-04-03T06:14:00;6.03;;;1.90;;
68800;SDS011;55784;50.734;7.086;2023-04-03T06:16:28;6.53;;;1.60;;
68800;SDS011;55784;50.734;7.086;2023-04-03T06:18:53;6.13;;;1.80;;
68800;SDS011;55784;50.734;7.086;2023-04-03T06:21:19;6.50;;;1.80;;
68800;SDS011;55784;50.734;7.086;2023-04-03T06:23:44;6.23;;;1.80;;
68800;SDS011;55784;50.734;7.086;2023-04-03T06:26:10;5.23;;;1.57;;
68800;SDS011;55784;50.734;7.086;2023-04-03T06:28:35;5.75;;;1.42;;
68800;SDS011;55784;50.734;7.086;2023-04-03T06:31:00;6.72;;;1.70;;
68800;SDS011;55784;50.734;7.086;2023-04-03T06:33:26;7.25;;;1.90;;
68800;SDS011;55784;50.734;7.086;2023-04-03T06:35:55;6.47;;;1.73;;
68800;SDS011;55784;50.734;7.086;2023-04-03T06:38:21;7.67;;;1.70;;
68800;SDS011;55784;50.734;7.086;2023-04-03T06:40:47;5.55;;;1.45;;
68800;SDS011;55784;50.734;7.086;2023-04-03T06:43:12;6.47;;;1.53;;
68800;SDS011;55784;50.734;7.086;2023-04-03T06:45:37;5.73;;;1.40;;
68800;SDS011;55784;50.734;7.086;2023-04-03T06:48:03;4.67;;;1.10;;
68800;SDS011;55784;50.734;7.086;2023-04-03T06:50:29;7.17;;;1.30;;
68800;SDS011;55784;50.734;7.086;2023-04-03T06:52:55;5.45;;;1.20;;
68800;SDS011;55784;50.734;7.086;2023-04-03T06:55:20;5.90;;;1.20;;
68800;SDS011;55784;50.734;7.086;2023-04-03T06:57:46;6.05;;;1.13;;
68800;SDS011;55784;50.734;7.086;2023-04-03T07:00:12;5.67;;;1.10;;
68800;SDS011;55784;50.734;7.086;2023-04-03T07:02:38;5.15;;;1.23;;
68800;SDS011;55784;50.734;7.086;2023-04-03T07:05:03;6.50;;;1.20;;
68800;SDS011;55784;50.734;7.086;2023-04-03T07:07:30;6.35;;;1.35;;
68800;SDS011;55784;50.734;7.086;2023-04-03T07:09:59;5.90;;;1.10;;
68800;SDS011;55784;50.734;7.086;2023-04-03T07:12:24;8.60;;;1.90;;
68800;SDS011;55784;50.734;7.086;2023-04-03T07:14:50;4.93;;;1.20;;
68800;SDS011;55784;50.734;7.086;2023-04-03T07:17:15;7.33;;;1.50;;
68800;SDS011;55784;50.734;7.086;2023-04-03T07:19:41;5.10;;;1.30;;
68800;SDS011;55784;50.734;7.086;2023-04-03T07:22:06;6.30;;;1.40;;
68800;SDS011;55784;50.734;7.086;2023-04-03T07:24:31;5.23;;;1.17;;
68800;SDS011;55784;50.734;7.086;2023-04-03T07:26:57;6.37;;;0.90;;
68800;SDS011;55784;50.734;7.086;2023-04-03T07:29:22;6.77;;;1.90;;
68800;SDS011;55784;50.734;7.086;2023-04-03T07:31:47;5.93;;;1.40;;
68800;SDS011;55784;50.734;7.086;2023-04-03T07:34:14;6.50;;;1.30;;
68800;SDS011;55784;50.734;7.086;2023-04-03T07:36:40;5.57;;;1.02;;
68800;SDS011;55784;50.734;7.086;2023-04-03T07:39:06;6.53;;;1.17;;
68800;SDS011;55784;50.734;7.086;2023-04-03T07:41:33;6.72;;;1.30;;
68800;SDS011;55784;50.734;7.086;2023-04-03T07:43:58;5.13;;;1.30;;
68800;SDS011;55784;50.734;7.086;2023-04-03T07:46:24;6.57;;;1.13;;
68800;SDS011;55784;50.734;7.086;2023-04-03T07:48:49;5.67;;;1.27;;
68800;SDS011;55784;50.734;7.086;2023-04-03T07:51:15;5.05;;;0.75;;
68800;SDS011;55784;50.734;7.086;2023-04-03T07:53:41;6.80;;;1.10;;
68800;SDS011;55784;50.734;7.086;2023-04-03T07:56:06;6.53;;;0.85;;
68800;SDS011;55784;50.734;7.086;2023-04-03T07:58:32;5.03;;;1.17;;
68800;SDS011;55784;50.734;7.086;2023-04-03T08:01:06;5.20;;;1.00;;
68800;SDS011;55784;50.734;7.086;2023-04-03T08:03:32;4.35;;;0.98;;
68800;SDS011;55784;50.734;7.086;2023-04-03T08:06:01;6.67;;;1.00;;
68800;SDS011;55784;50.734;7.086;2023-04-03T08:08:28;5.20;;;1.00;;
68800;SDS011;55784;50.734;7.086;2023-04-03T08:10:55;5.97;;;1.05;;
68800;SDS011;55784;50.734;7.086;2023-04-03T08:13:20;6.50;;;0.90;;
68800;SDS011;55784;50.734;7.086;2023-04-03T08:15:47;6.05;;;1.25;;
68800;SDS011;55784;50.734;7.086;2023-04-03T08:18:13;4.80;;;0.80;;
68800;SDS011;55784;50.734;7.086;2023-04-03T08:23:51;4.63;;;0.80;;
68800;SDS011;55784;50.734;7.086;2023-04-03T08:26:18;4.90;;;0.93;;
68800;SDS011;55784;50.734;7.086;2023-04-03T08:28:46;7.05;;;1.08;;
68800;SDS011;55784;50.734;7.086;2023-04-03T08:31:13;5.10;;;1.00;;
68800;SDS011;55784;50.734;7.086;2023-04-03T08:33:41;4.75;;;0.90;;
68800;SDS011;55784;50.734;7.086;2023-04-03T08:36:14;4.87;;;1.10;;
68800;SDS011;55784;50.734;7.086;2023-04-03T08:38:56;6.90;;;1.00;;
68800;SDS011;55784;50.734;7.086;2023-04-03T08:41:29;4.97;;;0.83;;
68800;SDS011;55784;50.734;7.086;2023-04-03T08:44:02;5.85;;;0.90;;
68800;SDS011;55784;50.734;7.086;2023-04-03T08:49:48;6.25;;;1.40;;
68800;SDS011;55784;50.734;7.086;2023-04-03T08:52:19;8.10;;;1.27;;
68800;SDS011;55784;50.734;7.086;2023-04-03T08:54:49;6.30;;;1.20;;
68800;SDS011;55784;50.734;7.086;2023-04-03T08:57:20;6.70;;;1.30;;
68800;SDS011;55784;50.734;7.086;2023-04-03T08:59:55;7.43;;;1.65;;
68800;SDS011;55784;50.734;7.086;2023-04-03T09:02:25;4.28;;;1.00;;
68800;SDS011;55784;50.734;7.086;2023-04-03T09:05:20;5.20;;;0.90;;
68800;SDS011;55784;50.734;7.086;2023-04-03T09:10:29;5.05;;;0.90;;
68800;SDS011;55784;50.734;7.086;2023-04-03T09:13:02;4.47;;;0.80;;
68800;SDS011;55784;50.734;7.086;2023-04-03T09:15:49;5.45;;;0.98;;
68800;SDS011;55784;50.734;7.086;2023-04-03T09:20:44;4.25;;;0.80;;
68800;SDS011;55784;50.734;7.086;2023-04-03T09:23:34;4.47;;;0.70;;
68800;SDS011;55784;50.734;7.086;2023-04-03T09:26:08;7.47;;;1.35;;
68800;SDS011;55784;50.734;7.086;2023-04-03T09:28:41;5.10;;;1.00;;
68800;SDS011;55784;50.734;7.086;2023-04-03T09:31:16;6.38;;;1.10;;
68800;SDS011;55784;50.734;7.086;2023-04-03T09:33:52;6.47;;;1.00;;
68800;SDS011;55784;50.734;7.086;2023-04-03T09:39:14;6.53;;;1.00;;
68800;SDS011;55784;50.734;7.086;2023-04-03T09:41:55;4.82;;;0.90;;
68800;SDS011;55784;50.734;7.086;2023-04-03T09:44:23;6.68;;;0.88;;
68800;SDS011;55784;50.734;7.086;2023-04-03T09:46:50;6.13;;;1.00;;
68800;SDS011;55784;50.734;7.086;2023-04-03T09:49:16;4.37;;;0.80;;
68800;SDS011;55784;50.734;7.086;2023-04-03T09:51:42;8.05;;;1.40;;
68800;SDS011;55784;50.734;7.086;2023-04-03T09:54:25;5.83;;;0.80;;
68800;SDS011;55784;50.734;7.086;2023-04-03T09:56:56;5.93;;;0.80;;
68800;SDS011;55784;50.734;7.086;2023-04-03T09:59:26;3.95;;;0.90;;
68800;SDS011;55784;50.734;7.086;2023-04-03T10:01:59;5.20;;;0.90;;
68800;SDS011;55784;50.734;7.086;2023-04-03T10:04:43;7.30;;;0.93;;
68800;SDS011;55784;50.734;7.086;2023-04-03T10:07:25;4.70;;;0.93;;
68800;SDS011;55784;50.734;7.086;2023-04-03T10:10:22;4.93;;;0.80;;
68800;SDS011;55784;50.734;7.086;2023-04-03T10:13:07;6.30;;;1.05;;
68800;SDS011;55784;50.734;7.086;2023-04-03T10:15:41;8.18;;;1.95;;
68800;SDS011;55784;50.734;7.086;2023-04-03T10:18:28;4.90;;;0.80;;
68800;SDS011;55784;50.734;7.086;2023-04-03T10:24:14;4.72;;;1.30;;
68800;SDS011;55784;50.734;7.086;2023-04-03T10:29:42;4.10;;;0.70;;
68800;SDS011;55784;50.734;7.086;2023-04-03T10:34:57;4.78;;;0.90;;
68800;SDS011;55784;50.734;7.086;2023-04-03T10:37:50;4.88;;;0.80;;
68800;SDS011;55784;50.734;7.086;2023-04-03T10:45:56;3.85;;;0.77;;
68800;SDS011;55784;50.734;7.086;2023-04-03T10:51:23;9.25;;;2.25;;
68800;SDS011;55784;50.734;7.086;2023-04-03T10:59:21;6.03;;;0.70;;
68800;SDS011;55784;50.734;7.086;2023-04-03T11:01:49;13.93;;;3.28;;
68800;SDS011;55784;50.734;7.086;2023-04-03T11:04:45;10.38;;;2.38;;
68800;SDS011;55784;50.734;7.086;2023-04-03T11:07:22;5.40;;;1.00;;
68800;SDS011;55784;50.734;7.086;2023-04-03T11:09:52;6.88;;;1.38;;
68800;SDS011;55784;50.734;7.086;2023-04-03T11:12:26;12.20;;;3.40;;
68800;SDS011;55784;50.734;7.086;2023-04-03T11:14:56;11.07;;;2.92;;
68800;SDS011;55784;50.734;7.086;2023-04-03T11:20:03;4.30;;;0.90;;
68800;SDS011;55784;50.734;7.086;2023-04-03T11:22:36;3.63;;;0.65;;
68800;SDS011;55784;50.734;7.086;2023-04-03T11:25:14;6.13;;;1.00;;
68800;SDS011;55784;50.734;7.086;2023-04-03T11:28:04;3.63;;;0.70;;
68800;SDS011;55784;50.734;7.086;2023-04-03T11:35:51;5.15;;;0.80;;
68800;SDS011;55784;50.734;7.086;2023-04-03T11:38:25;3.83;;;0.70;;
68800;SDS011;55784;50.734;7.086;2023-04-03T11:41:01;18.42;;;9.30;;
68800;SDS011;55784;50.734;7.086;2023-04-03T11:43:30;5.60;;;1.17;;
68800;SDS011;55784;50.734;7.086;2023-04-03T11:46:11;6.90;;;2.15;;
68800;SDS011;55784;50.734;7.086;2023-04-03T11:48:42;9.15;;;2.78;;
68800;SDS011;55784;50.734;7.086;2023-04-03T11:53:41;7.63;;;2.10;;
68800;SDS011;55784;50.734;7.086;2023-04-03T12:01:51;11.13;;;3.80;;
68800;SDS011;55784;50.734;7.086;2023-04-03T12:04:18;8.63;;;2.50;;
68800;SDS011;55784;50.734;7.086;2023-04-03T12:09:25;33.60;;;14.85;;
68800;SDS011;55784;50.734;7.086;2023-04-03T12:12:00;42.63;;;21.30;;
68800;SDS011;55784;50.734;7.086;2023-04-03T12:14:45;36.78;;;15.25;;
68800;SDS011;55784;50.734;7.086;2023-04-03T12:17:16;12.80;;;3.37;;
68800;SDS011;55784;50.734;7.086;2023-04-03T12:19:48;12.57;;;3.30;;
68800;SDS011;55784;50.734;7.086;2023-04-03T12:22:14;12.70;;;3.47;;
68800;SDS011;55784;50.734;7.086;2023-04-03T12:24:43;8.18;;;2.72;;
68800;SDS011;55784;50.734;7.086;2023-04-03T12:27:26;28.90;;;13.00;;
68800;SDS011;55784;50.734;7.086;2023-04-03T12:32:43;11.77;;;4.38;;
68800;SDS011;55784;50.734;7.086;2023-04-03T12:35:34;11.45;;;4.20;;
68800;SDS011;55784;50.734;7.086;2023-04-03T12:41:17;9.30;;;1.80;;
68800;SDS011;55784;50.734;7.086;2023-04-03T12:46:49;12.07;;;3.03;;
68800;SDS011;55784;50.734;7.086;2023-04-03T12:51:47;11.63;;;4.07;;
68800;SDS011;55784;50.734;7.086;2023-04-03T12:54:14;9.50;;;2.77;;
68800;SDS011;55784;50.734;7.086;2023-04-03T12:56:46;8.77;;;2.08;;
68800;SDS011;55784;50.734;7.086;2023-04-03T12:59:16;4.93;;;1.13;;
68800;SDS011;55784;50.734;7.086;2023-04-03T13:01:44;4.05;;;0.93;;
68800;SDS011;55784;50.734;7.086;2023-04-03T13:04:18;8.13;;;2.05;;
68800;SDS011;55784;50.734;7.086;2023-04-03T13:06:46;5.03;;;0.93;;
68800;SDS011;55784;50.734;7.086;2023-04-03T13:09:19;4.68;;;0.80;;
68800;SDS011;55784;50.734;7.086;2023-04-03T13:11:46;9.73;;;2.80;;
68800;SDS011;55784;50.734;7.086;2023-04-03T13:14:18;7.20;;;2.00;;
68800;SDS011;55784;50.734;7.086;2023-04-03T13:16:55;5.67;;;1.20;;
68800;SDS011;55784;50.734;7.086;2023-04-03T13:19:27;8.00;;;1.95;;
68800;SDS011;55784;50.734;7.086;2023-04-03T13:21:58;5.93;;;1.55;;
68800;SDS011;55784;50.734;7.086;2023-04-03T13:24:27;7.72;;;2.08;;
68800;SDS011;55784;50.734;7.086;2023-04-03T13:26:55;6.68;;;1.20;;
68800;SDS011;55784;50.734;7.086;2023-04-03T13:29:25;4.60;;;1.00;;
68800;SDS011;55784;50.734;7.086;2023-04-03T13:31:53;4.60;;;1.00;;
68800;SDS011;55784;50.734;7.086;2023-04-03T13:34:21;5.32;;;1.25;;
68800;SDS011;55784;50.734;7.086;2023-04-03T13:41:44;10.33;;;3.00;;
68800;SDS011;55784;50.734;7.086;2023-04-03T13:46:46;12.93;;;4.60;;
68800;SDS011;55784;50.734;7.086;2023-04-03T13:49:22;6.53;;;1.70;;
68800;SDS011;55784;50.734;7.086;2023-04-03T13:52:26;5.68;;;1.00;;
68800;SDS011;55784;50.734;7.086;2023-04-03T13:54:56;5.97;;;1.60;;
68800;SDS011;55784;50.734;7.086;2023-04-03T13:57:24;5.20;;;1.02;;
68800;SDS011;55784;50.734;7.086;2023-04-03T13:59:50;4.93;;;0.88;;
68800;SDS011;55784;50.734;7.086;2023-04-03T14:02:23;4.73;;;0.90;;
68800;SDS011;55784;50.734;7.086;2023-04-03T14:04:57;3.63;;;0.70;;
68800;SDS011;55784;50.734;7.086;2023-04-03T14:07:26;4.90;;;0.90;;
68800;SDS011;55784;50.734;7.086;2023-04-03T14:09:52;5.85;;;1.30;;
68800;SDS011;55784;50.734;7.086;2023-04-03T14:12:21;6.15;;;1.00;;
68800;SDS011;55784;50.734;7.086;2023-04-03T14:14:52;5.30;;;1.10;;
68800;SDS011;55784;50.734;7.086;2023-04-03T14:17:22;4.43;;;1.10;;
68800;SDS011;55784;50.734;7.086;2023-04-03T14:19:49;5.38;;;0.88;;
68800;SDS011;55784;50.734;7.086;2023-04-03T14:22:23;5.43;;;1.10;;
68800;SDS011;55784;50.734;7.086;2023-04-03T14:24:54;4.38;;;0.77;;
68800;SDS011;55784;50.734;7.086;2023-04-03T14:27:22;6.18;;;1.45;;
68800;SDS011;55784;50.734;7.086;2023-04-03T14:29:50;5.85;;;1.23;;
68800;SDS011;55784;50.734;7.086;2023-04-03T14:32:17;6.75;;;1.70;;
68800;SDS011;55784;50.734;7.086;2023-04-03T14:34:44;5.07;;;1.20;;
68800;SDS011;55784;50.734;7.086;2023-04-03T14:37:12;4.13;;;0.75;;
68800;SDS011;55784;50.734;7.086;2023-04-03T14:39:39;4.18;;;0.90;;
68800;SDS011;55784;50.734;7.086;2023-04-03T14:42:05;4.05;;;0.82;;
68800;SDS011;55784;50.734;7.086;2023-04-03T14:44:30;4.83;;;0.80;;
68800;SDS011;55784;50.734;7.086;2023-04-03T14:46:56;4.00;;;1.00;;
68800;SDS011;55784;50.734;7.086;2023-04-03T14:49:23;5.93;;;1.30;;
68800;SDS011;55784;50.734;7.086;2023-04-03T14:51:52;4.85;;;1.00;;
68800;SDS011;55784;50.734;7.086;2023-04-03T14:54:19;5.90;;;1.17;;
68800;SDS011;55784;50.734;7.086;2023-04-03T14:56:50;9.02;;;2.28;;
68800;SDS011;55784;50.734;7.086;2023-04-03T14:59:16;10.38;;;2.13;;
68800;SDS011;55784;50.734;7.086;2023-04-03T15:01:42;9.77;;;2.30;;
68800;SDS011;55784;50.734;7.086;2023-04-03T15:04:15;13.13;;;4.70;;
68800;SDS011;55784;50.734;7.086;2023-04-03T15:06:41;12.77;;;3.60;;
68800;SDS011;55784;50.734;7.086;2023-04-03T15:09:20;7.80;;;2.30;;
68800;SDS011;55784;50.734;7.086;2023-04-03T15:11:49;5.28;;;0.82;;
68800;SDS011;55784;50.734;7.086;2023-04-03T15:14:16;4.68;;;1.02;;
68800;SDS011;55784;50.734;7.086;2023-04-03T15:16:42;6.82;;;1.52;;
68800;SDS011;55784;50.734;7.086;2023-04-03T15:19:07;10.20;;;2.70;;
68800;SDS011;55784;50.734;7.086;2023-04-03T15:21:33;5.90;;;1.17;;
68800;SDS011;55784;50.734;7.086;2023-04-03T15:23:58;10.07;;;2.30;;
68800;SDS011;55784;50.734;7.086;2023-04-03T15:26:24;5.63;;;1.00;;
68800;SDS011;55784;50.734;7.086;2023-04-03T15:28:50;6.00;;;0.95;;
68800;SDS011;55784;50.734;7.086;2023-04-03T15:31:15;8.93;;;2.00;;
68800;SDS011;55784;50.734;7.086;2023-04-03T15:33:41;10.77;;;2.50;;
68800;SDS011;55784;50.734;7.086;2023-04-03T15:36:06;11.25;;;3.03;;
68800;SDS011;55784;50.734;7.086;2023-04-03T15:38:32;8.57;;;2.67;;
68800;SDS011;55784;50.734;7.086;2023-04-03T15:40:57;9.70;;;2.17;;
68800;SDS011;55784;50.734;7.086;2023-04-03T15:43:23;3.97;;;0.80;;
68800;SDS011;55784;50.734;7.086;2023-04-03T15:45:48;8.87;;;2.27;;
68800;SDS011;55784;50.734;7.086;2023-04-03T15:48:17;5.93;;;1.42;;
68800;SDS011;55784;50.734;7.086;2023-04-03T15:50:43;7.07;;;2.58;;
68800;SDS011;55784;50.734;7.086;2023-04-03T15:53:09;8.95;;;2.03;;
68800;SDS011;55784;50.734;7.086;2023-04-03T15:55:35;8.97;;;1.90;;
68800;SDS011;55784;50.734;7.086;2023-04-03T15:58:03;5.03;;;1.00;;
68800;SDS011;55784;50.734;7.086;2023-04-03T16:00:29;4.88;;;1.20;;
68800;SDS011;55784;50.734;7.086;2023-04-03T16:02:56;6.03;;;1.38;;
68800;SDS011;55784;50.734;7.086;2023-04-03T16:05:26;10.87;;;3.07;;
68800;SDS011;55784;50.734;7.086;2023-04-03T16:07:51;4.68;;;0.90;;
68800;SDS011;55784;50.734;7.086;2023-04-03T16:10:17;5.10;;;1.10;;
68800;SDS011;55784;50.734;7.086;2023-04-03T16:12:43;3.97;;;0.70;;
68800;SDS011;55784;50.734;7.086;2023-04-03T16:15:09;5.28;;;1.20;;
68800;SDS011;55784;50.734;7.086;2023-04-03T16:17:35;5.18;;;0.70;;
68800;SDS011;55784;50.734;7.086;2023-04-03T16:20:02;4.80;;;1.00;;